Strona główna
METAR-TAF:

METAR-TAF

Lotnisko :

Pruniers

Romorantin-Lanthenay, Francja

Szerokość geograficzna: 47-19N, Długość geograficzna: 001-41E, wysokość: 85 m

Aktualna obserwacja pogody

Raport powstał 43 minut temu, godzina 11:00 UTC
Wiatr 6 kt od zachód, zmienny między południowo-południowy zachód i północno-północny zachód
Temperatura 24°C
Wilgotność 50%
Ciśnienie 1015 hPa
Widzialność 10 km lub więcej
Przerywane chmury na wysokości 4200 ft

METAR: LFYR 181100Z AUTO 27006KT 210V340 9999 BKN042 24/13 Q1015 NOSIG

czas: 13:43 (11:43 UTC)


TAF: brakujący

Obserwacja i prognoza pogody dla ponad 4000 lotnisk (raport METAR i TAF).

Dostępne stacje oznaczono żółtymi i czerwonymi punktami na mapie.

Najedź kursorem aby zobaczyć nazwę stacji.

Kliknij aby zobaczyć obserwacje i prognozy pogody.

Aby zmienić mapę: kliknij na zielony przycisk z czarnym krzyżykiem, aby powiększyć; na zielony przycisk z myślnikiem, aby pomniejszyć; na zielone strzałki, aby przejść do map sąsiednich.


METAR-TAF: